Flight Track Log - Related Links

Times and Time Zones

All times are in EDT time to prevent confusion due to time zone crossing. See the USC110 flight status page for this flight to view local times or setup timezone preferences in your user account.

Time Position Orientation Groundspeed Altitude Reporting Facility
EDT Latitude Longitude Course Direction KTS MPH feet Rate Location/Type
Tue 12:34:49 AM 35.2161 -80.9475 345° North 88 101 1,300  Level Atlanta Center
Tue 12:35:19 AM 35.2183 -80.9550 290° West 102 117 2,000 1,353 Climbing Atlanta Center
Tue 12:36:31 AM 35.2606 -80.9686 345° North 118 136 3,600 1,308 Climbing Atlanta Center
Tue 12:37:32 AM 35.2922 -80.9853 337° Northwest 127 146 4,900 1,180 Climbing Atlanta Center
Tue 12:38:33 AM 35.3258 -80.9969 344° North 128 147 6,000 1,091 Climbing Atlanta Center
Tue 12:39:33 AM 35.3639 -81.0106 344° North 141 162 7,100 945 Climbing Atlanta Center
Tue 12:40:00 AM 35.3889 -81.0185 345° North  Level FlightAware Approximate
Tue 12:40:40 AM 35.4058 -81.0244 345° North 135 155 8,000  Level Atlanta Center
Tue 12:41:20 AM 35.4311 -81.0389 335° Northwest 151 174 8,000  Level Atlanta Center
Tue 12:42:20 AM 35.4733 -81.0550 343° North 165 190 8,000  Level Atlanta Center
Tue 12:43:20 AM 35.5156 -81.0714 342° North 165 190 8,000  Level Atlanta Center
Tue 12:44:20 AM 35.5575 -81.0878 342° North 165 190 8,000  Level Atlanta Center
Tue 12:45:20 AM 35.6017 -81.1039 343° North 165 190 8,000  Level Atlanta Center
Tue 12:46:20 AM 35.6442 -81.1256 337° Northwest 165 190 8,000  Level Atlanta Center
Tue 12:47:20 AM 35.6903 -81.1417 344° North 170 196 8,000  Level Atlanta Center
Tue 12:48:20 AM 35.7325 -81.1608 340° North 170 196 8,000  Level Atlanta Center
Tue 12:49:20 AM 35.7767 -81.1772 343° North 170 196 8,000  Level Atlanta Center
Tue 12:50:20 AM 35.8189 -81.1936 343° North 170 196 8,000  Level Atlanta Center
Tue 12:51:20 AM 35.8608 -81.2125 340° North 170 196 8,000  Level Atlanta Center
Tue 12:52:20 AM 35.9031 -81.2292 342° North 165 190 8,000  Level Atlanta Center
Tue 12:53:20 AM 35.9494 -81.2481 342° North 165 190 8,000  Level Atlanta Center
Tue 12:54:20 AM 35.9853 -81.2647 339° North 165 190 8,000  Level Atlanta Center
Tue 12:55:20 AM 36.0294 -81.2811 343° North 165 190 8,000  Level Atlanta Center
Tue 12:56:20 AM 36.0714 -81.2978 342° North 165 190 8,000  Level Atlanta Center
Tue 12:57:20 AM 36.1136 -81.3142 343° North 160 184 8,000  Level Atlanta Center
Tue 12:58:20 AM 36.1556 -81.3308 342° North 160 184 8,000  Level Atlanta Center
Tue 12:59:20 AM 36.1978 -81.3500 340° North 160 184 8,000  Level Atlanta Center
Tue 01:00:20 AM 36.2461 -81.3692 342° North 160 184 8,000  Level Atlanta Center
Tue 01:01:20 AM 36.2903 -81.3881 341° North 160 184 8,000 -50 Level Atlanta Center
Tue 01:02:20 AM 36.3344 -81.4047 343° North 165 190 7,900  Descending Atlanta Center
Tue 01:03:20 AM 36.3725 -81.4217 340° North 159 183 8,000  Climbing Atlanta Center
Tue 01:04:20 AM 36.4125 -81.4383 341° North 152 175 7,900  Descending Atlanta Center
Tue 01:05:20 AM 36.4522 -81.4500 347° North 147 169 8,000 50 Climbing Atlanta Center
Tue 01:06:20 AM 36.4903 -81.4694 338° Northwest 142 163 8,000  Level Atlanta Center
Tue 01:07:20 AM 36.5261 -81.4914 334° Northwest 142 163 8,000  Level Atlanta Center
Tue 01:08:20 AM 36.5661 -81.5031 347° North 147 169 8,000  Level Atlanta Center
Tue 01:09:20 AM 36.6039 -81.5200 340° North 152 175 8,000  Level Atlanta Center
Tue 01:10:20 AM 36.6394 -81.5319 345° North 147 169 8,000  Level Atlanta Center
Tue 01:11:20 AM 36.6733 -81.5464 341° North 142 163 8,000  Level Atlanta Center
Tue 01:12:20 AM 36.7069 -81.5658 335° Northwest 132 152 8,000  Level Atlanta Center
Tue 01:13:20 AM 36.7425 -81.5753 348° North 132 152 8,000  Level Atlanta Center
Tue 01:14:20 AM 36.7742 -81.5950 333° Northwest 127 146 8,000  Level Atlanta Center
Tue 01:15:20 AM 36.8100 -81.6094 342° North 127 146 8,000  Level Atlanta Center
Tue 01:17:03 AM 36.8689 -81.6342 341° North 134 154 8,000  Level Indianapolis Center
Tue 01:18:03 AM 36.9036 -81.6483 342° North 132 152 8,000  Level Indianapolis Center
Tue 01:19:04 AM 36.9417 -81.6639 342° North 138 159 8,000  Level Indianapolis Center
Tue 01:20:04 AM 36.9764 -81.6783 342° North 133 153 8,000  Level Indianapolis Center
Tue 01:21:05 AM 37.0128 -81.6931 342° North 136 157 8,000 -50 Level Indianapolis Center
Tue 01:22:05 AM 37.0561 -81.7108 342° North 138 159 7,900 -50 Descending Indianapolis Center
Tue 01:23:05 AM 37.0953 -81.7281 341° North 148 170 7,900  Level Indianapolis Center
Tue 01:24:06 AM 37.1353 -81.7456 341° North 151 174 7,900  Level Indianapolis Center
Tue 01:25:06 AM 37.1739 -81.7614 342° North 147 169 7,900  Level Indianapolis Center
Tue 01:26:07 AM 37.2133 -81.7792 340° North 149 171 7,900  Level Indianapolis Center
Tue 01:27:07 AM 37.2536 -81.7958 342° North 151 174 7,900  Level Indianapolis Center
Tue 01:28:08 AM 37.2947 -81.8117 343° North 152 175 7,900  Level Indianapolis Center
Tue 01:29:08 AM 37.3339 -81.8311 338° Northwest 152 175 7,900  Level Indianapolis Center
Tue 01:30:09 AM 37.3756 -81.8481 342° North 156 180 7,900  Level Indianapolis Center
Tue 01:31:09 AM 37.4172 -81.8650 342° North 158 182 7,900  Level Indianapolis Center
Tue 01:32:09 AM 37.4586 -81.8833 341° North 158 182 7,900  Level Indianapolis Center
Tue 01:33:10 AM 37.5011 -81.9025 340° North 161 185 7,900  Level Indianapolis Center
Tue 01:34:10 AM 37.5431 -81.9200 342° North 159 183 7,900  Level Indianapolis Center
Tue 01:35:11 AM 37.5858 -81.9378 342° North 160 184 7,900  Level Indianapolis Center
Tue 01:36:11 AM 37.6281 -81.9558 341° North 160 184 7,900  Level Indianapolis Center
Tue 01:37:11 AM 37.6708 -81.9731 342° North 161 185 7,900  Level Indianapolis Center
Tue 01:38:12 AM 37.7131 -81.9917 341° North 161 185 7,900  Level Indianapolis Center
Tue 01:39:12 AM 37.7567 -82.0097 342° North 163 188 7,900  Level Indianapolis Center
Tue 01:40:12 AM 37.7997 -82.0300 340° North 164 189 7,900  Level Indianapolis Center
Tue 01:41:13 AM 37.8403 -82.0483 340° North 163 188 7,900  Level Indianapolis Center
Tue 01:42:13 AM 37.8842 -82.0658 343° North 165 190 7,900  Level Indianapolis Center
Tue 01:43:14 AM 37.9278 -82.0858 340° North 165 190 7,900  Level Indianapolis Center
Tue 01:44:14 AM 37.9722 -82.1042 342° North 166 191 7,900  Level Indianapolis Center
Tue 01:45:14 AM 38.0156 -82.1214 343° North 165 190 7,900  Level Indianapolis Center
Tue 01:46:15 AM 38.0575 -82.1417 339° North 162 186 7,900  Level Indianapolis Center
Tue 01:47:15 AM 38.1014 -82.1603 342° North 160 184 7,900  Level Indianapolis Center
Tue 01:48:15 AM 38.1428 -82.1761 343° North 161 185 7,900  Level Indianapolis Center
Tue 01:49:16 AM 38.1856 -82.1961 340° North 162 186 7,900  Level Indianapolis Center
Tue 01:50:16 AM 38.2275 -82.2164 339° North 162 186 7,900  Level Indianapolis Center
Tue 01:51:16 AM 38.2689 -82.2344 341° North 159 183 7,900  Level Indianapolis Center
Tue 01:52:16 AM 38.3111 -82.2522 342° North 160 184 7,900  Level Indianapolis Center
Tue 01:53:17 AM 38.3528 -82.2711 340° North 159 183 7,900  Level Indianapolis Center
Tue 01:54:17 AM 38.3950 -82.2889 342° North 160 184 7,900  Level Indianapolis Center
Tue 01:55:17 AM 38.4364 -82.3078 340° North 158 182 7,900  Level Indianapolis Center
Tue 01:56:18 AM 38.4794 -82.3261 342° North 161 185 7,900  Level Indianapolis Center
Tue 01:57:18 AM 38.5197 -82.3433 342° North 157 181 7,900  Level Indianapolis Center
Tue 01:58:18 AM 38.5619 -82.3628 340° North 159 183 7,900  Level Indianapolis Center
Tue 01:59:19 AM 38.6039 -82.3825 340° North 160 184 7,900  Level Indianapolis Center
Tue 02:00:19 AM 38.6467 -82.4000 342° North 160 184 7,900  Level Indianapolis Center
Tue 02:01:19 AM 38.6897 -82.4206 340° North 163 188 7,900 99 Level Indianapolis Center
Tue 02:02:20 AM 38.7311 -82.4369 343° North 156 180 8,100 99 Climbing Indianapolis Center
Tue 02:03:20 AM 38.7731 -82.4569 340° North 157 181 8,100  Level Indianapolis Center
Tue 02:04:20 AM 38.8158 -82.4750 342° North 162 186 8,100  Level Indianapolis Center
Tue 02:05:21 AM 38.8564 -82.4953 339° North 159 183 8,100  Level Indianapolis Center
Tue 02:06:21 AM 38.8969 -82.5139 340° North 156 180 8,100  Level Indianapolis Center
Tue 02:07:21 AM 38.9394 -82.5325 341° North 160 184 8,100  Level Indianapolis Center
Tue 02:08:21 AM 38.9814 -82.5511 341° North 160 184 8,100  Level Indianapolis Center
Tue 02:09:22 AM 39.0233 -82.5689 342° North 159 183 8,100  Level Indianapolis Center
Tue 02:10:22 AM 39.0647 -82.5875 341° North 157 181 8,100  Level Indianapolis Center
Tue 02:11:22 AM 39.1058 -82.6064 340° North 158 182 8,100  Level Indianapolis Center
Tue 02:12:23 AM 39.1475 -82.6250 341° North 157 181 8,100 -50 Level Indianapolis Center
Tue 02:13:23 AM 39.1939 -82.6447 342° North 156 180 8,000 -100 Descending Indianapolis Center
Tue 02:14:23 AM 39.2339 -82.6631 340° North 153 176 7,900  Descending Indianapolis Center
Tue 02:15:23 AM 39.2758 -82.6819 341° North 156 180 8,000 50 Climbing Indianapolis Center
Tue 02:16:24 AM 39.3161 -82.7000 341° North 153 176 8,000 -50 Level Indianapolis Center
Tue 02:17:24 AM 39.3569 -82.7183 341° North 153 176 7,900  Descending Indianapolis Center
Tue 02:17:54 AM 39.3764 -82.7289 337° Northwest 153 176 8,000 125 Climbing Indianapolis Center
Tue 02:18:12 AM 39.3886 -82.7331 345° North 153 176 8,000  Level Indianapolis Center
Tue 02:19:13 AM 39.4292 -82.7536 339° North 154 177 8,000 -149 Level Indianapolis Center
Tue 02:20:13 AM 39.4697 -82.7717 341° North 155 178 7,700 -694 Descending Indianapolis Center
Tue 02:21:14 AM 39.5186 -82.7906 343° North 175 201 6,600 -984 Descending Indianapolis Center
Tue 02:22:15 AM 39.5656 -82.8119 341° North 177 204 5,700 -1,091 Descending Indianapolis Center
Tue 02:23:15 AM 39.6122 -82.8333 341° North 179 206 4,400 -1,200 Descending Indianapolis Center
Tue 02:24:25 AM 39.6592 -82.8597 337° Northwest 177 204 3,100 -1,041 Descending Indianapolis Center
Tue 02:25:16 AM 39.6986 -82.8864 333° Northwest 186 214 2,300 -696 Descending Indianapolis Center
Tue 02:26:17 AM 39.7364 -82.9153 330° Northwest 150 173 1,800 -443 Descending Indianapolis Center
Tue 02:27:18 AM 39.7764 -82.9442 331° Northwest 160 184 1,400 -372 Descending Indianapolis Center
Tue 02:28:26 AM 39.8206 -82.9381 North 159 183 1,000 -353 Descending Indianapolis Center
Tue 02:30:00 AM 39.8138 -82.9278 142° Southeast  Level Estimated

Login

Don't have an account? Register now (free) for customized features, flight alerts, and more!